Aviation Digital Data Service (ADDS)

Output produced by METARs form (0135 UTC 16 October 2018)
found at http://www.aviationweather.gov/metar/data/
 
METAR text: RJAH 160100Z 35006KT 9999 FEW030 SCT080 OVC230 20/13 Q1014
Conditions at: RJAH (HYAKURI (JASDF) , JP) observed 0100 UTC 16 October 2018
Temperature: 20.0°C (68°F)
Dewpoint: 13.0°C (55°F) [RH = 64%]
Pressure (altimeter): 29.94 inches Hg (1014.0 mb)
Winds: from the N (350 degrees) at 7 MPH (6 knots; 3.1 m/s)
Visibility: 6 or more miles (10+ km)
Ceiling: 23000 feet AGL
Clouds: few clouds at 3000 feet AGL
scattered clouds at 8000 feet AGL
overcast cloud deck at 23000 feet AGL
Weather: no significant weather observed at this time

Forecast for: RJAH (HYAKURI (JASDF) , JP)
Text: TAF RJAH 152307Z 1600/1706 05008KT 9999 FEW010 BKN030
Forecast period: 0000 UTC 16 October 2018 to 0600 UTC 17 October 2018
Forecast type: FROM: standard forecast or significant change
Winds: from the NE (50 degrees) at 9 MPH (8 knots; 4.1 m/s)
Visibility: 6 or more miles 10+ km)
Ceiling: 3000 feet AGL
Clouds: few clouds at 1000 feet AGL
broken clouds at 3000 feet AGL
Weather: no significant weather forecast for this period